createdAt,value
2022-11-05T00:01:49.826Z,12.60
2022-11-05T00:04:37.000Z,12.00
2022-11-05T00:07:35.443Z,14.00
2022-11-05T00:10:26.110Z,12.60
2022-11-05T00:13:15.070Z,11.20
2022-11-05T00:16:01.563Z,11.10
2022-11-05T00:18:30.095Z,9.70
2022-11-05T00:21:00.384Z,9.70
2022-11-05T00:23:46.979Z,9.00
2022-11-05T00:26:15.166Z,9.30
2022-11-05T00:28:44.393Z,8.00
2022-11-05T00:31:13.876Z,8.30
2022-11-05T00:33:44.433Z,7.80
2022-11-05T00:36:12.603Z,7.00
2022-11-05T00:38:40.548Z,6.50
2022-11-05T00:41:08.449Z,7.40
2022-11-05T00:43:55.099Z,6.50
2022-11-05T00:46:23.369Z,5.70
2022-11-05T00:49:10.106Z,4.10
2022-11-05T00:51:37.982Z,2.40
2022-11-05T00:54:05.970Z,1.50
2022-11-05T00:56:34.219Z,0.90
2022-11-05T00:59:02.038Z,0.80
2022-11-05T01:01:30.289Z,0.70
2022-11-05T01:03:58.376Z,0.50
2022-11-05T01:06:26.848Z,0.40
2022-11-05T01:08:55.879Z,0.90
2022-11-05T01:11:33.345Z,0.80
2022-11-05T01:14:05.464Z,1.20
2022-11-05T01:16:33.443Z,0.70
2022-11-05T01:19:02.733Z,1.40
2022-11-05T01:21:32.245Z,0.80
2022-11-05T01:24:00.771Z,1.20
2022-11-05T01:26:30.243Z,1.40
2022-11-05T01:29:01.965Z,1.30
2022-11-05T01:31:30.381Z,1.30
2022-11-05T01:34:00.398Z,1.50
2022-11-05T01:36:28.367Z,1.30
2022-11-05T01:38:56.174Z,1.20
2022-11-05T01:41:24.061Z,1.20
2022-11-05T01:43:56.673Z,1.30
2022-11-05T01:46:29.294Z,1.20
2022-11-05T01:49:03.989Z,1.40
2022-11-05T01:51:32.083Z,1.20
2022-11-05T01:54:03.784Z,1.50
2022-11-05T01:56:44.089Z,1.40
2022-11-05T01:59:14.983Z,1.50
2022-11-05T02:01:43.340Z,1.40
2022-11-05T02:04:16.203Z,1.30
2022-11-05T02:09:20.838Z,1.30
2022-11-05T02:11:50.568Z,1.30
2022-11-05T02:14:18.792Z,1.30
2022-11-05T02:17:25.456Z,1.00
2022-11-05T02:20:10.407Z,1.10
2022-11-05T02:22:47.433Z,1.10
2022-11-05T02:25:15.332Z,1.00
2022-11-05T02:27:59.045Z,1.00
2022-11-05T02:30:53.184Z,1.00
2022-11-05T02:33:47.385Z,1.10
2022-11-05T02:36:43.916Z,0.90
2022-11-05T02:39:22.973Z,1.00
2022-11-05T02:42:12.257Z,1.20
2022-11-05T02:45:05.276Z,1.20
2022-11-05T02:47:42.863Z,1.20
2022-11-05T02:50:24.790Z,0.90
2022-11-05T02:53:01.751Z,0.80
2022-11-05T02:55:51.483Z,0.80
2022-11-05T02:58:19.769Z,0.90
2022-11-05T03:00:54.749Z,0.70
2022-11-05T03:03:31.562Z,0.80
2022-11-05T03:06:08.680Z,1.00
2022-11-05T03:09:01.412Z,1.00
2022-11-05T03:11:33.164Z,0.60
2022-11-05T03:14:04.244Z,0.40
2022-11-05T03:17:04.883Z,0.70
2022-11-05T03:19:40.466Z,0.50
2022-11-05T03:22:11.435Z,0.90
2022-11-05T03:24:42.620Z,0.60
2022-11-05T03:27:15.748Z,0.90
2022-11-05T03:29:47.915Z,0.70
2022-11-05T03:34:48.085Z,0.70
2022-11-05T03:39:49.039Z,0.50
2022-11-05T03:42:18.630Z,0.70
2022-11-05T03:44:50.529Z,0.90
2022-11-05T03:47:22.729Z,1.00
2022-11-05T03:52:20.123Z,2.10
2022-11-05T03:54:47.952Z,1.50
2022-11-05T03:57:22.100Z,1.00
2022-11-05T03:59:53.167Z,0.90
2022-11-05T04:02:23.952Z,1.20
2022-11-05T04:04:52.868Z,1.20
2022-11-05T04:07:56.024Z,1.40
2022-11-05T04:10:42.465Z,1.00
2022-11-05T04:13:26.177Z,1.40
2022-11-05T04:16:14.362Z,1.40
2022-11-05T04:18:42.852Z,0.80
2022-11-05T04:21:29.577Z,0.70
2022-11-05T04:24:10.010Z,0.70
2022-11-05T04:26:43.746Z,1.00
2022-11-05T04:29:30.382Z,1.30
2022-11-05T04:31:58.213Z,0.90
2022-11-05T04:34:26.087Z,0.80
2022-11-05T04:36:54.098Z,0.90
2022-11-05T04:39:21.999Z,0.80
2022-11-05T04:41:49.899Z,1.10
2022-11-05T04:44:17.810Z,0.70
2022-11-05T04:46:45.699Z,1.10
2022-11-05T04:49:13.516Z,1.10
2022-11-05T04:51:41.389Z,1.90
2022-11-05T04:54:09.182Z,0.90
2022-11-05T04:56:37.016Z,1.20
2022-11-05T04:59:04.824Z,1.10
2022-11-05T05:01:32.837Z,1.00
2022-11-05T05:04:01.441Z,1.10
2022-11-05T05:06:30.099Z,1.30
2022-11-05T05:08:58.576Z,0.80
2022-11-05T05:11:26.535Z,1.20
2022-11-05T05:13:55.581Z,1.20
2022-11-05T05:16:27.544Z,1.30
2022-11-05T05:18:55.551Z,1.40
2022-11-05T05:21:39.181Z,1.50
2022-11-05T05:24:08.797Z,1.30
2022-11-05T05:26:41.833Z,1.60
2022-11-05T05:29:10.668Z,1.10
2022-11-05T05:31:38.764Z,1.60
2022-11-05T05:34:08.436Z,1.10
2022-11-05T05:36:37.503Z,1.50
2022-11-05T05:39:13.298Z,1.80
2022-11-05T05:41:41.217Z,1.70
2022-11-05T05:44:09.051Z,1.90
2022-11-05T05:46:37.547Z,1.80
2022-11-05T05:49:12.077Z,1.60
2022-11-05T05:51:40.577Z,1.70
2022-11-05T05:54:08.451Z,1.90
2022-11-05T05:56:37.368Z,1.80
2022-11-05T05:59:06.025Z,1.80
2022-11-05T06:01:34.201Z,2.20
2022-11-05T06:04:03.435Z,2.20
2022-11-05T06:06:31.304Z,2.60
2022-11-05T06:08:59.327Z,2.10
2022-11-05T06:11:27.624Z,2.20
2022-11-05T06:13:55.491Z,2.30
2022-11-05T06:16:23.896Z,1.80
2022-11-05T06:18:53.225Z,2.10
2022-11-05T06:21:21.214Z,2.00
2022-11-05T06:23:49.977Z,1.90
2022-11-05T06:26:19.207Z,1.90
2022-11-05T06:28:47.286Z,2.30
2022-11-05T06:34:19.625Z,2.20
2022-11-05T06:37:04.309Z,2.30
2022-11-05T06:39:41.495Z,1.80
2022-11-05T06:43:02.571Z,2.30
2022-11-05T06:46:29.916Z,2.50
2022-11-05T06:49:01.139Z,2.20
2022-11-05T06:51:33.920Z,2.00
2022-11-05T06:54:02.128Z,2.30
2022-11-05T06:56:35.747Z,2.20
2022-11-05T06:59:30.799Z,2.90
2022-11-05T07:02:12.392Z,2.00
2022-11-05T07:04:41.081Z,2.80
2022-11-05T07:07:27.237Z,2.40
2022-11-05T07:09:57.771Z,2.20
2022-11-05T07:13:35.694Z,3.20
2022-11-05T07:16:37.631Z,2.10
2022-11-05T07:19:23.916Z,2.20
2022-11-05T07:25:10.866Z,2.00
2022-11-05T07:27:42.234Z,2.10
2022-11-05T07:31:50.293Z,2.50
2022-11-05T07:34:18.338Z,1.40
2022-11-05T07:40:37.747Z,2.80
2022-11-05T07:43:05.627Z,2.60
2022-11-05T07:45:37.911Z,2.30
2022-11-05T07:48:17.052Z,2.00
2022-11-05T07:51:18.734Z,2.30
2022-11-05T07:54:36.125Z,2.10
2022-11-05T07:56:48.302Z,1.80
2022-11-05T08:02:51.818Z,2.40
2022-11-05T08:05:29.067Z,2.60
2022-11-05T08:08:22.232Z,1.70
2022-11-05T08:17:44.675Z,2.10
2022-11-05T08:20:15.541Z,2.20
2022-11-05T08:22:45.810Z,1.50
2022-11-05T08:25:15.338Z,1.50
2022-11-05T08:27:43.297Z,2.00
2022-11-05T08:30:11.871Z,1.70
2022-11-05T08:32:45.122Z,1.80
2022-11-05T08:35:13.514Z,1.40
2022-11-05T08:37:41.685Z,1.60
2022-11-05T08:40:12.811Z,1.40
2022-11-05T08:42:44.284Z,1.20
2022-11-05T08:45:16.057Z,1.50
2022-11-05T08:47:47.236Z,1.20
2022-11-05T08:50:15.346Z,1.60
2022-11-05T08:52:44.695Z,1.30
2022-11-05T08:55:18.862Z,1.40
2022-11-05T08:57:55.305Z,1.10
2022-11-05T09:00:24.099Z,1.50
2022-11-05T09:02:57.850Z,1.40
2022-11-05T09:05:26.076Z,1.50
2022-11-05T09:08:03.554Z,1.30
2022-11-05T09:10:35.153Z,1.60
2022-11-05T09:13:04.498Z,1.40
2022-11-05T09:15:33.781Z,1.50
2022-11-05T09:18:03.411Z,1.20
2022-11-05T09:20:32.762Z,1.00
2022-11-05T09:23:01.137Z,1.10
2022-11-05T09:25:29.677Z,1.40
2022-11-05T09:28:16.557Z,0.90
2022-11-05T09:30:47.800Z,1.20
2022-11-05T09:33:18.134Z,1.40
2022-11-05T09:35:46.156Z,1.10
2022-11-05T09:38:14.400Z,1.30
2022-11-05T09:40:59.356Z,1.30
2022-11-05T09:43:53.853Z,1.00
2022-11-05T09:46:28.498Z,1.40
2022-11-05T09:49:05.767Z,1.40
2022-11-05T09:51:36.017Z,1.50
2022-11-05T09:54:04.476Z,2.20
2022-11-05T09:56:37.043Z,2.30
2022-11-05T09:59:14.571Z,2.20
2022-11-05T10:01:44.180Z,1.90
2022-11-05T10:04:23.340Z,1.70
2022-11-05T10:06:57.428Z,2.00
2022-11-05T10:09:29.334Z,1.90
2022-11-05T10:12:13.089Z,1.90
2022-11-05T10:14:48.891Z,2.50
2022-11-05T10:17:24.985Z,2.50
2022-11-05T10:20:30.854Z,2.40
2022-11-05T10:23:10.385Z,2.10
2022-11-05T10:25:42.338Z,1.80
2022-11-05T10:28:19.347Z,2.50
2022-11-05T10:30:50.881Z,2.40
2022-11-05T10:33:42.935Z,2.90
2022-11-05T10:36:15.791Z,2.90
2022-11-05T10:38:44.280Z,2.80
2022-11-05T10:41:28.087Z,3.00
2022-11-05T10:44:19.577Z,2.30
2022-11-05T10:47:24.642Z,2.70
2022-11-05T10:50:03.389Z,2.60
2022-11-05T10:53:00.360Z,2.50
2022-11-05T10:55:34.165Z,2.50
2022-11-05T10:58:30.605Z,3.00
2022-11-05T11:00:58.489Z,2.90
2022-11-05T11:03:48.351Z,2.60
2022-11-05T11:06:41.769Z,2.80
2022-11-05T11:09:20.113Z,2.30
2022-11-05T11:11:56.675Z,2.80
2022-11-05T11:14:24.559Z,2.20
2022-11-05T11:16:57.559Z,3.00
2022-11-05T11:19:53.821Z,2.20
2022-11-05T11:22:22.212Z,2.30
2022-11-05T11:24:54.927Z,2.50
2022-11-05T11:27:30.249Z,2.60
2022-11-05T11:30:02.994Z,2.60
2022-11-05T11:32:39.751Z,3.40
2022-11-05T11:35:18.171Z,2.40
2022-11-05T11:37:46.789Z,2.10
2022-11-05T11:40:37.500Z,2.70
2022-11-05T11:43:28.445Z,3.90
2022-11-05T11:46:02.179Z,3.00
2022-11-05T11:48:35.997Z,2.50
2022-11-05T11:51:35.205Z,2.70
2022-11-05T11:54:04.961Z,3.50
2022-11-05T11:56:45.307Z,3.20
2022-11-05T11:59:46.715Z,2.20
2022-11-05T12:02:34.956Z,2.60
2022-11-05T12:05:03.393Z,2.70
2022-11-05T12:07:41.235Z,2.00
2022-11-05T12:10:24.330Z,2.30
2022-11-05T12:13:17.155Z,2.70
2022-11-05T12:15:58.339Z,2.00
2022-11-05T12:18:40.764Z,2.90
2022-11-05T12:21:52.523Z,2.00
2022-11-05T12:24:36.972Z,2.00
2022-11-05T12:27:27.711Z,2.10
2022-11-05T12:30:05.332Z,2.50
2022-11-05T12:33:04.391Z,2.10
2022-11-05T12:35:49.010Z,2.40
2022-11-05T12:38:35.666Z,2.50
2022-11-05T12:41:22.776Z,2.10
2022-11-05T12:44:01.905Z,2.60
2022-11-05T12:46:43.092Z,2.30
2022-11-05T12:49:30.926Z,2.90
2022-11-05T12:52:09.271Z,2.40
2022-11-05T12:54:51.781Z,1.90
2022-11-05T12:57:20.110Z,2.20
2022-11-05T12:59:50.887Z,2.00
2022-11-05T13:02:29.592Z,1.90
2022-11-05T13:05:13.752Z,1.80
2022-11-05T13:08:21.959Z,1.90
2022-11-05T13:10:57.998Z,2.30
2022-11-05T13:13:46.938Z,2.10
2022-11-05T13:16:29.829Z,2.30
2022-11-05T13:19:02.797Z,2.30
2022-11-05T13:21:31.134Z,1.80
2022-11-05T13:24:11.040Z,1.70
2022-11-05T13:26:47.364Z,2.30
2022-11-05T13:29:38.332Z,2.50
2022-11-05T13:32:38.451Z,2.40
2022-11-05T13:35:15.851Z,1.40
2022-11-05T13:38:10.441Z,1.70
2022-11-05T13:41:07.201Z,2.00
2022-11-05T13:44:13.912Z,2.50
2022-11-05T13:47:20.891Z,2.10
2022-11-05T13:49:53.160Z,2.70
2022-11-05T13:52:43.281Z,2.30
2022-11-05T13:55:57.751Z,2.30
2022-11-05T13:58:47.848Z,2.60
2022-11-05T14:01:17.229Z,3.50
2022-11-05T14:03:48.066Z,2.90
2022-11-05T14:06:28.236Z,3.20
2022-11-05T14:09:03.677Z,3.90
2022-11-05T14:11:35.860Z,2.80
2022-11-05T14:14:09.218Z,4.00
2022-11-05T14:17:09.809Z,3.30
2022-11-05T14:20:05.248Z,4.00
2022-11-05T14:22:40.142Z,3.50
2022-11-05T14:25:21.239Z,2.80
2022-11-05T14:27:51.878Z,3.20
2022-11-05T14:30:45.554Z,3.10
2022-11-05T14:33:24.934Z,2.40
2022-11-05T14:36:20.449Z,2.20
2022-11-05T14:39:13.337Z,2.20
2022-11-05T14:41:53.963Z,2.50
2022-11-05T14:44:28.763Z,3.00
2022-11-05T14:53:43.053Z,2.70
2022-11-05T14:56:42.843Z,2.90
2022-11-05T14:59:26.943Z,3.50
2022-11-05T15:02:22.677Z,4.20
2022-11-05T15:05:37.297Z,6.00
2022-11-05T15:08:27.062Z,4.90
2022-11-05T15:11:19.172Z,5.40
2022-11-05T15:14:39.362Z,4.40
2022-11-05T15:17:46.707Z,4.70
2022-11-05T15:20:41.602Z,4.20
2022-11-05T15:23:25.425Z,3.80
2022-11-05T15:26:14.563Z,4.30
2022-11-05T15:28:54.617Z,3.80
2022-11-05T15:31:48.325Z,3.90
2022-11-05T15:39:02.304Z,4.20
2022-11-05T15:41:47.283Z,6.50
2022-11-05T15:44:29.221Z,4.30
2022-11-05T15:47:33.527Z,4.20
2022-11-05T15:53:14.591Z,4.80
2022-11-05T15:56:49.939Z,4.30
2022-11-05T16:00:29.902Z,3.70
2022-11-05T16:03:08.985Z,4.70
2022-11-05T16:19:41.855Z,3.10
2022-11-05T16:22:09.809Z,2.60
2022-11-05T16:24:37.901Z,3.40
2022-11-05T16:27:06.532Z,3.40
2022-11-05T16:29:38.241Z,3.10
2022-11-05T16:32:15.356Z,3.30
2022-11-05T16:34:48.404Z,3.10
2022-11-05T16:37:18.343Z,3.20
2022-11-05T16:39:46.560Z,4.90
2022-11-05T16:42:23.571Z,5.00
2022-11-05T16:44:52.424Z,3.90
2022-11-05T16:47:21.305Z,5.20
2022-11-05T16:49:49.743Z,3.90
2022-11-05T16:52:18.225Z,5.90
2022-11-05T16:54:46.058Z,6.40
2022-11-05T16:57:34.097Z,5.20
2022-11-05T17:00:01.987Z,7.80
2022-11-05T17:02:30.095Z,8.50
2022-11-05T17:04:58.160Z,8.00
2022-11-05T17:07:26.349Z,9.10
2022-11-05T17:09:55.929Z,10.40
2022-11-05T17:12:23.796Z,9.90
2022-11-05T17:14:51.637Z,11.00
2022-11-05T17:17:19.449Z,11.10
2022-11-05T17:19:47.277Z,12.70
2022-11-05T17:22:15.257Z,13.00
2022-11-05T17:24:43.206Z,12.30
2022-11-05T17:27:11.023Z,13.40
2022-11-05T17:29:38.857Z,11.90
2022-11-05T17:32:07.143Z,12.40
2022-11-05T17:34:35.138Z,13.10
2022-11-05T17:37:06.052Z,12.60
2022-11-05T17:39:34.351Z,14.90
2022-11-05T17:42:02.360Z,14.10
2022-11-05T17:44:30.282Z,13.30
2022-11-05T17:46:58.340Z,14.30
2022-11-05T17:49:26.182Z,12.50
2022-11-05T17:51:54.009Z,16.20
2022-11-05T17:54:21.859Z,14.00
2022-11-05T17:56:49.668Z,16.70
2022-11-05T17:59:17.834Z,13.00
2022-11-05T18:01:46.012Z,12.20
2022-11-05T18:04:14.690Z,13.60
2022-11-05T18:06:42.974Z,13.00
2022-11-05T18:09:11.299Z,13.90
2022-11-05T18:11:40.028Z,13.30
2022-11-05T18:14:08.215Z,12.40
2022-11-05T18:16:37.193Z,13.10
2022-11-05T18:19:05.547Z,10.80
2022-11-05T18:21:34.220Z,13.60
2022-11-05T18:24:04.225Z,13.30
2022-11-05T18:26:32.137Z,13.40
2022-11-05T18:29:01.416Z,17.10
2022-11-05T18:31:29.561Z,15.20
2022-11-05T18:33:59.219Z,13.60
2022-11-05T18:36:30.102Z,12.30
2022-11-05T18:38:59.441Z,12.10
2022-11-05T18:41:27.401Z,11.00
2022-11-05T18:43:59.945Z,10.90
2022-11-05T18:46:56.382Z,11.70
2022-11-05T18:49:17.113Z,10.80
2022-11-05T18:51:45.002Z,11.50
2022-11-05T18:54:12.961Z,10.40
2022-11-05T18:56:45.555Z,11.40
2022-11-05T18:59:35.888Z,10.70
2022-11-05T19:02:03.157Z,9.90
2022-11-05T19:04:31.379Z,8.90
2022-11-05T19:07:04.492Z,8.40
2022-11-05T19:09:34.318Z,9.60
2022-11-05T19:12:02.992Z,8.80
2022-11-05T19:14:31.350Z,10.20
2022-11-05T19:17:00.031Z,10.10
2022-11-05T19:19:28.412Z,13.70
2022-11-05T19:21:56.339Z,12.00
2022-11-05T19:24:24.891Z,12.80
2022-11-05T19:26:52.757Z,12.60
2022-11-05T19:29:20.621Z,14.90
2022-11-05T19:31:48.545Z,11.90
2022-11-05T19:34:16.582Z,13.90
2022-11-05T19:36:44.869Z,13.90
2022-11-05T19:39:14.725Z,13.80
2022-11-05T19:41:42.823Z,13.90
2022-11-05T19:44:11.281Z,14.50
2022-11-05T19:46:39.307Z,13.70
2022-11-05T19:49:07.193Z,12.30
2022-11-05T19:51:35.441Z,12.50
2022-11-05T19:54:06.639Z,10.70
2022-11-05T19:56:36.016Z,11.30
2022-11-05T19:59:06.506Z,9.50
2022-11-05T20:01:34.837Z,10.50
2022-11-05T20:04:03.550Z,10.30
2022-11-05T20:06:35.747Z,10.50
2022-11-05T20:09:21.520Z,9.50
2022-11-05T20:11:53.969Z,9.40
2022-11-05T20:14:23.124Z,9.90
2022-11-05T20:16:51.812Z,10.10
2022-11-05T20:19:20.695Z,9.60
2022-11-05T20:21:49.108Z,10.30
2022-11-05T20:24:24.188Z,10.30
2022-11-05T20:26:56.270Z,12.20
2022-11-05T20:29:32.190Z,13.70
2022-11-05T20:32:03.701Z,13.20
2022-11-05T20:34:32.594Z,16.30
2022-11-05T20:37:01.254Z,13.30
2022-11-05T20:39:29.180Z,13.60
2022-11-05T20:42:00.712Z,13.90
2022-11-05T20:44:28.874Z,15.00
2022-11-05T20:46:56.834Z,13.50
2022-11-05T20:49:25.861Z,13.10
2022-11-05T20:51:54.492Z,10.80
2022-11-05T20:54:23.064Z,11.50
2022-11-05T20:56:51.259Z,10.20
2022-11-05T20:59:21.650Z,12.20
2022-11-05T21:01:51.292Z,11.60
2022-11-05T21:04:19.513Z,12.40
2022-11-05T21:06:47.360Z,12.40
2022-11-05T21:09:15.149Z,12.40
2022-11-05T21:12:01.709Z,11.90
2022-11-05T21:14:29.652Z,14.80
2022-11-05T21:16:57.543Z,13.50
2022-11-05T21:19:25.512Z,14.50
2022-11-05T21:21:53.494Z,14.60
2022-11-05T21:24:21.533Z,14.50
2022-11-05T21:26:50.097Z,15.50
2022-11-05T21:29:18.700Z,14.70
2022-11-05T21:31:46.989Z,15.10
2022-11-05T21:34:15.148Z,15.40
2022-11-05T21:36:43.193Z,11.90
2022-11-05T21:39:13.650Z,11.50
2022-11-05T21:41:42.806Z,12.70
2022-11-05T21:44:10.991Z,11.70
2022-11-05T21:46:38.948Z,9.10
2022-11-05T21:49:06.925Z,10.40
2022-11-05T21:51:53.631Z,10.70
2022-11-05T21:54:40.311Z,9.30
2022-11-05T21:57:34.924Z,9.70
2022-11-05T22:00:08.929Z,9.90
2022-11-05T22:02:37.212Z,9.40
2022-11-05T22:05:06.972Z,9.70
2022-11-05T22:07:37.832Z,10.50
2022-11-05T22:10:15.576Z,11.20
2022-11-05T22:12:45.166Z,10.80
2022-11-05T22:15:13.747Z,10.10
2022-11-05T22:17:46.467Z,11.20
2022-11-05T22:20:16.037Z,11.00
2022-11-05T22:22:44.452Z,12.20
2022-11-05T22:25:13.452Z,12.80
2022-11-05T22:27:42.065Z,11.60
2022-11-05T22:30:10.464Z,12.10
2022-11-05T22:32:39.148Z,14.40
2022-11-05T22:35:07.774Z,13.70
2022-11-05T22:37:35.572Z,13.40
2022-11-05T22:40:03.969Z,13.20
2022-11-05T22:42:31.967Z,12.90
2022-11-05T22:44:59.933Z,14.40
2022-11-05T22:47:27.744Z,15.00
2022-11-05T22:49:55.588Z,17.10
2022-11-05T22:52:23.551Z,15.10
2022-11-05T22:54:51.403Z,15.00
2022-11-05T22:57:19.241Z,16.50
2022-11-05T22:59:47.494Z,13.70
2022-11-05T23:02:15.483Z,16.70
2022-11-05T23:04:43.459Z,15.50
2022-11-05T23:07:29.999Z,15.20
2022-11-05T23:10:16.564Z,15.90
2022-11-05T23:12:44.805Z,15.40
2022-11-05T23:15:32.694Z,15.20
2022-11-05T23:18:19.170Z,16.20
2022-11-05T23:21:05.782Z,18.20
2022-11-05T23:23:52.153Z,16.80
2022-11-05T23:26:38.722Z,14.20
2022-11-05T23:29:06.583Z,14.20
2022-11-05T23:31:52.913Z,14.30
2022-11-05T23:34:20.848Z,13.00
2022-11-05T23:37:07.133Z,12.80
2022-11-05T23:39:39.784Z,13.10
2022-11-05T23:42:29.129Z,13.20
2022-11-05T23:45:15.804Z,15.90
2022-11-05T23:48:02.252Z,15.40
2022-11-05T23:50:34.449Z,15.90
2022-11-05T23:53:05.382Z,15.70
2022-11-05T23:55:33.313Z,14.60
2022-11-05T23:58:01.333Z,15.40
